Absecon Heights, New Jersey
Current Conditions -  °F | °C
As of 7:54 PM on Wednesday 22 Oct 2014 (Local Time) from KACY Reporting Station
Moderate Rain Moderate Rain  
Wind Chill: 11°   Ceiling: 1400
Heat Index: 11°   Visibility: 5mi
Dew Point: 10°   Wind: 17mph
Humidity: 93%   Direction: 350°N
Pressure: 29.77"   Gusts: 25mph
Location:  39.4315°N, 74.5003°W
Report Text: KACY 222354Z 35015G22KT 5SM RA BR BKN014 BKN021 OVC055 11/10 A2977 RMK AO2 SLP079 P0004 60014 T01110100 10139 20111 50003
Loading
Personal Weather Stations






























Interactive Weather Map
Tropical Storm Tracking
New forecast layout! Learn more

10-Day Weather Forecast

Advertisements
Track Severe Weather on mobile